createdAt,value
2022-12-05T00:02:12.338Z,4.03
2022-12-05T00:04:40.988Z,3.78
2022-12-05T00:07:11.086Z,3.90
2022-12-05T00:09:39.731Z,4.20
2022-12-05T00:12:08.347Z,4.07
2022-12-05T00:14:36.966Z,4.15
2022-12-05T00:17:05.619Z,4.32
2022-12-05T00:19:34.382Z,4.20
2022-12-05T00:22:02.931Z,4.25
2022-12-05T00:24:32.901Z,4.10
2022-12-05T00:27:01.535Z,3.78
2022-12-05T00:29:30.133Z,3.78
2022-12-05T00:31:58.789Z,3.92
2022-12-05T00:34:27.476Z,4.13
2022-12-05T00:36:56.248Z,3.63
2022-12-05T00:39:24.854Z,3.53
2022-12-05T00:41:54.844Z,3.80
2022-12-05T00:44:23.495Z,4.00
2022-12-05T00:46:52.143Z,3.63
2022-12-05T00:49:20.769Z,3.40
2022-12-05T00:51:49.416Z,3.45
2022-12-05T00:54:18.884Z,3.85
2022-12-05T00:56:47.728Z,3.53
2022-12-05T00:59:19.103Z,3.90
2022-12-05T01:01:48.453Z,3.67
2022-12-05T01:04:18.237Z,4.25
2022-12-05T01:06:47.099Z,3.50
2022-12-05T01:09:17.031Z,3.80
2022-12-05T01:11:46.186Z,3.30
2022-12-05T01:14:15.606Z,3.70
2022-12-05T01:16:46.963Z,3.17
2022-12-05T01:19:17.239Z,3.08
2022-12-05T01:21:47.013Z,3.20
2022-12-05T01:24:15.939Z,3.35
2022-12-05T01:26:44.518Z,3.03
2022-12-05T01:29:14.257Z,3.63
2022-12-05T01:31:43.210Z,3.05
2022-12-05T01:34:15.656Z,3.38
2022-12-05T01:36:44.347Z,3.42
2022-12-05T01:39:13.701Z,3.42
2022-12-05T01:41:43.856Z,3.67
2022-12-05T01:44:27.288Z,3.10
2022-12-05T01:46:56.190Z,3.25
2022-12-05T01:49:29.018Z,2.78
2022-12-05T01:51:59.893Z,2.83
2022-12-05T01:54:28.589Z,2.72
2022-12-05T01:56:59.178Z,3.20
2022-12-05T01:59:28.876Z,2.65
2022-12-05T02:01:57.705Z,3.35
2022-12-05T02:04:28.546Z,3.20
2022-12-05T02:06:57.620Z,2.83
2022-12-05T02:09:26.280Z,3.55
2022-12-05T02:11:57.096Z,3.75
2022-12-05T02:14:29.883Z,3.50
2022-12-05T02:17:02.240Z,3.45
2022-12-05T02:19:57.842Z,2.80
2022-12-05T02:22:39.335Z,3.25
2022-12-05T02:25:15.119Z,3.38
2022-12-05T02:27:58.579Z,3.20
2022-12-05T02:30:28.911Z,2.85
2022-12-05T02:33:05.650Z,3.42
2022-12-05T02:35:39.141Z,3.28
2022-12-05T02:38:14.921Z,3.25
2022-12-05T02:40:45.774Z,3.22
2022-12-05T02:43:15.424Z,3.30
2022-12-05T02:45:46.773Z,2.83
2022-12-05T02:48:15.913Z,3.33
2022-12-05T02:50:45.124Z,2.80
2022-12-05T02:53:14.450Z,3.50
2022-12-05T02:55:43.951Z,3.33
2022-12-05T02:58:15.095Z,3.80
2022-12-05T03:00:46.330Z,3.25
2022-12-05T03:03:16.478Z,3.47
2022-12-05T03:05:47.291Z,3.38
2022-12-05T03:08:19.572Z,3.50
2022-12-05T03:10:49.407Z,3.92
2022-12-05T03:13:19.828Z,3.65
2022-12-05T03:15:50.821Z,3.42
2022-12-05T03:18:22.158Z,3.78
2022-12-05T03:20:52.882Z,4.30
2022-12-05T03:23:22.934Z,4.25
2022-12-05T03:25:54.775Z,4.60
2022-12-05T03:28:26.151Z,4.35
2022-12-05T03:30:58.477Z,4.25
2022-12-05T03:33:29.694Z,4.63
2022-12-05T03:36:01.168Z,4.40
2022-12-05T03:38:32.868Z,4.68
2022-12-05T03:41:07.227Z,4.68
2022-12-05T03:43:37.694Z,4.78
2022-12-05T03:46:11.236Z,5.20
2022-12-05T03:48:41.729Z,4.30
2022-12-05T03:51:12.313Z,5.22
2022-12-05T03:53:43.859Z,5.60
2022-12-05T03:56:14.312Z,5.30
2022-12-05T03:58:45.928Z,5.93
2022-12-05T04:01:17.866Z,6.88
2022-12-05T04:03:51.719Z,5.57
2022-12-05T04:06:23.738Z,5.40
2022-12-05T04:08:54.674Z,5.38
2022-12-05T04:11:25.033Z,4.70
2022-12-05T04:13:55.134Z,4.97
2022-12-05T04:16:44.643Z,3.88
2022-12-05T04:19:18.857Z,3.75
2022-12-05T04:21:48.785Z,3.22
2022-12-05T04:24:35.791Z,4.13
2022-12-05T04:27:08.373Z,3.72
2022-12-05T04:29:39.641Z,3.65
2022-12-05T04:32:11.645Z,3.50
2022-12-05T04:34:40.615Z,3.88
2022-12-05T04:37:12.755Z,3.72
2022-12-05T04:39:43.452Z,3.47
2022-12-05T04:42:13.031Z,3.42
2022-12-05T04:44:44.059Z,3.50
2022-12-05T04:47:15.835Z,3.95
2022-12-05T04:49:49.240Z,3.55
2022-12-05T04:52:20.858Z,4.07
2022-12-05T04:54:51.039Z,3.60
2022-12-05T04:57:21.468Z,3.88
2022-12-05T04:59:50.355Z,3.70
2022-12-05T05:02:22.188Z,3.80
2022-12-05T05:04:52.702Z,3.75
2022-12-05T05:07:21.805Z,3.65
2022-12-05T05:09:50.583Z,3.60
2022-12-05T05:12:19.506Z,3.78
2022-12-05T05:14:48.192Z,3.60
2022-12-05T05:17:16.790Z,3.72
2022-12-05T05:19:46.731Z,3.45
2022-12-05T05:22:15.281Z,4.00
2022-12-05T05:24:43.883Z,3.47
2022-12-05T05:27:12.430Z,3.45
2022-12-05T05:29:41.270Z,3.60
2022-12-05T05:32:09.839Z,3.67
2022-12-05T05:34:38.491Z,3.65
2022-12-05T05:37:08.441Z,3.60
2022-12-05T05:39:36.974Z,3.30
2022-12-05T05:42:05.650Z,3.78
2022-12-05T05:44:34.367Z,3.90
2022-12-05T05:47:02.970Z,3.60
2022-12-05T05:49:31.667Z,3.60
2022-12-05T05:52:00.284Z,3.55
2022-12-05T05:54:30.409Z,3.50
2022-12-05T05:56:59.022Z,3.20
2022-12-05T05:59:27.853Z,4.00
2022-12-05T06:01:56.403Z,3.47
2022-12-05T06:04:25.149Z,3.50
2022-12-05T06:06:53.835Z,3.50
2022-12-05T06:09:22.474Z,3.65
2022-12-05T06:11:52.601Z,3.28
2022-12-05T06:14:21.157Z,3.63
2022-12-05T06:16:49.834Z,4.22
2022-12-05T06:19:18.483Z,3.83
2022-12-05T06:21:47.126Z,4.07
2022-12-05T06:24:15.673Z,3.95
2022-12-05T06:26:44.270Z,4.50
2022-12-05T06:29:14.544Z,3.92
2022-12-05T06:31:43.569Z,3.78
2022-12-05T06:34:12.158Z,4.00
2022-12-05T06:36:40.712Z,3.30
2022-12-05T06:39:09.603Z,3.30
2022-12-05T06:41:38.507Z,4.18
2022-12-05T06:44:07.222Z,6.28
2022-12-05T06:46:37.580Z,5.70
2022-12-05T06:49:06.230Z,3.80
2022-12-05T06:51:34.850Z,3.70
2022-12-05T06:54:03.545Z,5.18
2022-12-05T06:56:32.146Z,5.20
2022-12-05T06:59:00.687Z,4.80
2022-12-05T07:01:42.608Z,5.32
2022-12-05T07:04:16.779Z,4.10
2022-12-05T07:06:50.432Z,4.68
2022-12-05T07:09:20.243Z,4.30
2022-12-05T07:11:49.493Z,5.25
2022-12-05T07:14:46.480Z,4.78
2022-12-05T07:17:07.071Z,4.53
2022-12-05T07:19:37.092Z,5.65
2022-12-05T07:22:08.364Z,5.00
2022-12-05T07:24:40.731Z,5.18
2022-12-05T07:27:09.292Z,5.15
2022-12-05T07:29:37.872Z,5.05
2022-12-05T07:32:06.704Z,4.13
2022-12-05T07:34:38.847Z,3.85
2022-12-05T07:37:08.184Z,4.15
2022-12-05T07:39:36.955Z,5.15
2022-12-05T07:42:05.575Z,4.60
2022-12-05T07:44:34.901Z,4.43
2022-12-05T07:47:03.468Z,4.00
2022-12-05T07:49:32.079Z,3.97
2022-12-05T07:52:03.640Z,3.88
2022-12-05T07:54:32.216Z,4.00
2022-12-05T07:57:00.775Z,3.97
2022-12-05T07:59:29.377Z,4.03
2022-12-05T08:01:58.086Z,3.95
2022-12-05T08:04:26.718Z,4.10
2022-12-05T08:06:55.340Z,3.55
2022-12-05T08:09:25.650Z,4.43
2022-12-05T08:11:54.307Z,3.92
2022-12-05T08:14:22.918Z,3.42
2022-12-05T08:16:51.613Z,3.97
2022-12-05T08:19:20.394Z,4.45
2022-12-05T08:21:49.232Z,3.92
2022-12-05T08:24:17.780Z,4.40
2022-12-05T08:26:47.791Z,3.92
2022-12-05T08:29:17.273Z,4.10
2022-12-05T08:31:48.253Z,3.90
2022-12-05T08:34:18.535Z,4.47
2022-12-05T08:36:47.128Z,4.57
2022-12-05T08:39:16.680Z,4.32
2022-12-05T08:41:45.750Z,4.68
2022-12-05T08:44:17.046Z,4.40
2022-12-05T08:46:46.939Z,4.50
2022-12-05T08:49:15.526Z,4.50
2022-12-05T08:51:44.611Z,5.32
2022-12-05T08:54:13.157Z,5.20
2022-12-05T08:56:41.861Z,4.93
2022-12-05T08:59:10.478Z,5.30
2022-12-05T09:01:42.119Z,5.10
2022-12-05T09:04:12.554Z,4.90
2022-12-05T09:06:42.194Z,4.72
2022-12-05T09:09:11.720Z,4.55
2022-12-05T09:11:46.051Z,4.93
2022-12-05T09:14:15.076Z,4.68
2022-12-05T09:16:45.909Z,4.43
2022-12-05T09:19:15.410Z,5.00
2022-12-05T09:21:44.221Z,4.70
2022-12-05T09:24:13.272Z,4.70
2022-12-05T09:26:42.705Z,4.97
2022-12-05T09:29:16.694Z,4.28
2022-12-05T09:31:47.777Z,4.57
2022-12-05T09:34:18.836Z,4.20
2022-12-05T09:36:55.859Z,3.97
2022-12-05T09:39:27.339Z,3.95
2022-12-05T09:42:09.098Z,3.67
2022-12-05T09:44:46.108Z,4.50
2022-12-05T09:47:19.279Z,4.50
2022-12-05T09:49:51.196Z,4.38
2022-12-05T09:52:24.695Z,4.30
2022-12-05T09:54:53.584Z,4.32
2022-12-05T09:57:32.047Z,4.18
2022-12-05T10:00:03.754Z,3.72
2022-12-05T10:02:40.980Z,4.70
2022-12-05T10:05:13.411Z,4.40
2022-12-05T10:07:45.630Z,4.45
2022-12-05T10:10:23.197Z,4.22
2022-12-05T10:12:56.740Z,4.28
2022-12-05T10:15:28.494Z,4.00
2022-12-05T10:18:01.486Z,4.60
2022-12-05T10:20:32.066Z,3.90
2022-12-05T10:23:04.371Z,3.40
2022-12-05T10:25:34.344Z,4.30
2022-12-05T10:28:04.250Z,3.55
2022-12-05T10:30:36.076Z,3.92
2022-12-05T10:33:12.600Z,3.75
2022-12-05T10:35:41.940Z,4.13
2022-12-05T10:38:13.287Z,3.92
2022-12-05T10:40:42.974Z,4.03
2022-12-05T10:43:13.218Z,4.80
2022-12-05T10:45:44.809Z,3.97
2022-12-05T10:48:16.028Z,4.07
2022-12-05T10:50:45.292Z,4.18
2022-12-05T10:53:17.268Z,3.83
2022-12-05T10:56:06.354Z,3.97
2022-12-05T10:58:35.863Z,4.47
2022-12-05T11:01:10.144Z,4.45
2022-12-05T11:03:41.779Z,4.43
2022-12-05T11:06:16.918Z,3.90
2022-12-05T11:09:04.478Z,3.85
2022-12-05T11:11:35.074Z,4.40
2022-12-05T11:14:04.419Z,4.38
2022-12-05T11:16:34.743Z,4.75
2022-12-05T11:19:29.663Z,4.28
2022-12-05T11:21:58.494Z,3.83
2022-12-05T11:24:28.909Z,4.40
2022-12-05T11:26:57.928Z,4.40
2022-12-05T11:29:34.654Z,4.07
2022-12-05T11:32:03.411Z,3.60
2022-12-05T11:34:35.208Z,3.92
2022-12-05T11:37:06.688Z,4.75
2022-12-05T11:39:35.502Z,3.67
2022-12-05T11:42:18.906Z,3.53
2022-12-05T11:44:54.588Z,3.65
2022-12-05T11:47:34.539Z,4.38
2022-12-05T11:50:17.963Z,5.18
2022-12-05T11:52:54.042Z,4.05
2022-12-05T11:55:24.768Z,4.50
2022-12-05T11:58:12.263Z,4.10
2022-12-05T12:00:46.412Z,4.07
2022-12-05T12:03:36.377Z,3.60
2022-12-05T12:06:11.053Z,4.00
2022-12-05T12:08:46.138Z,3.70
2022-12-05T12:11:18.583Z,3.70
2022-12-05T12:13:54.635Z,3.85
2022-12-05T12:16:28.302Z,3.97
2022-12-05T12:19:15.342Z,3.80
2022-12-05T12:21:53.320Z,4.38
2022-12-05T12:24:29.371Z,4.47
2022-12-05T12:27:05.670Z,4.25
2022-12-05T12:29:46.163Z,4.03
2022-12-05T12:32:21.093Z,3.83
2022-12-05T12:35:01.772Z,4.68
2022-12-05T12:37:36.504Z,4.28
2022-12-05T12:40:14.270Z,4.28
2022-12-05T12:42:49.063Z,4.20
2022-12-05T12:45:36.514Z,4.72
2022-12-05T12:48:14.952Z,4.78
2022-12-05T12:50:45.208Z,4.22
2022-12-05T12:53:37.568Z,4.22
2022-12-05T12:56:14.862Z,4.05
2022-12-05T12:58:49.023Z,3.95
2022-12-05T13:01:21.466Z,4.20
2022-12-05T13:03:53.987Z,5.15
2022-12-05T13:06:25.028Z,5.05
2022-12-05T13:09:00.042Z,5.20
2022-12-05T13:11:31.423Z,3.85
2022-12-05T13:14:01.424Z,3.58
2022-12-05T13:16:32.760Z,3.92
2022-12-05T13:19:02.633Z,3.78
2022-12-05T13:21:31.689Z,4.00
2022-12-05T13:24:03.689Z,4.28
2022-12-05T13:26:34.594Z,4.05
2022-12-05T13:29:04.430Z,3.22
2022-12-05T13:31:37.152Z,2.90
2022-12-05T13:34:05.854Z,3.70
2022-12-05T13:36:58.730Z,3.40
2022-12-05T13:39:45.159Z,3.60
2022-12-05T13:42:24.557Z,4.00
2022-12-05T13:44:54.729Z,3.40
2022-12-05T13:47:31.457Z,3.83
2022-12-05T13:50:04.358Z,4.07
2022-12-05T13:52:34.056Z,3.50
2022-12-05T13:55:04.100Z,3.30
2022-12-05T13:57:51.380Z,3.97
2022-12-05T14:00:33.519Z,4.05
2022-12-05T14:03:06.774Z,4.75
2022-12-05T14:05:39.741Z,3.67
2022-12-05T14:08:26.826Z,4.20
2022-12-05T14:11:12.311Z,4.07
2022-12-05T14:13:44.022Z,4.15
2022-12-05T14:16:31.633Z,3.80
2022-12-05T14:19:04.223Z,3.55
2022-12-05T14:21:39.979Z,3.65
2022-12-05T14:24:11.575Z,3.38
2022-12-05T14:26:49.248Z,3.15
2022-12-05T14:29:35.944Z,3.50
2022-12-05T14:32:07.989Z,3.33
2022-12-05T14:34:38.426Z,3.17
2022-12-05T14:37:08.625Z,3.15
2022-12-05T14:39:42.831Z,3.10
2022-12-05T14:42:25.828Z,3.20
2022-12-05T14:44:58.106Z,3.95
2022-12-05T14:47:28.203Z,3.65
2022-12-05T14:50:02.476Z,3.20
2022-12-05T14:52:34.485Z,3.30
2022-12-05T14:55:09.336Z,3.45
2022-12-05T14:57:40.057Z,3.75
2022-12-05T15:00:18.367Z,3.75
2022-12-05T15:02:48.852Z,3.80
2022-12-05T15:05:24.378Z,3.10
2022-12-05T15:07:54.092Z,3.53
2022-12-05T15:10:24.306Z,3.40
2022-12-05T15:12:56.385Z,3.45
2022-12-05T15:15:32.526Z,2.90
2022-12-05T15:18:05.000Z,2.88
2022-12-05T15:20:40.512Z,3.53
2022-12-05T15:23:24.398Z,3.38
2022-12-05T15:25:57.971Z,3.42
2022-12-05T15:28:29.763Z,4.40
2022-12-05T15:30:59.949Z,3.92
2022-12-05T15:33:29.792Z,3.95
2022-12-05T15:35:58.637Z,4.38
2022-12-05T15:38:28.932Z,3.92
2022-12-05T15:40:58.818Z,4.68
2022-12-05T15:43:32.099Z,4.88
2022-12-05T15:46:12.273Z,4.28
2022-12-05T15:48:40.923Z,4.07
2022-12-05T15:51:09.589Z,3.67
2022-12-05T15:53:39.288Z,4.35
2022-12-05T15:56:09.625Z,4.28
2022-12-05T15:58:40.968Z,4.15
2022-12-05T16:01:13.452Z,4.40
2022-12-05T16:03:43.876Z,4.30
2022-12-05T16:06:15.959Z,4.60
2022-12-05T16:08:47.856Z,4.30
2022-12-05T16:11:16.953Z,3.70
2022-12-05T16:13:45.751Z,3.45
2022-12-05T16:16:19.182Z,3.40
2022-12-05T16:18:51.668Z,3.35
2022-12-05T16:21:36.033Z,4.07
2022-12-05T16:24:08.687Z,3.50
2022-12-05T16:26:40.951Z,4.50
2022-12-05T16:29:28.380Z,3.60
2022-12-05T16:31:59.439Z,4.00
2022-12-05T16:34:29.439Z,3.92
2022-12-05T16:36:58.711Z,3.63
2022-12-05T16:39:28.242Z,3.88
2022-12-05T16:41:57.084Z,3.45
2022-12-05T16:44:53.674Z,3.95
2022-12-05T16:47:26.362Z,3.92
2022-12-05T16:49:55.162Z,4.25
2022-12-05T16:52:23.699Z,4.85
2022-12-05T16:54:52.307Z,5.00
2022-12-05T16:57:21.690Z,5.85
2022-12-05T16:59:50.294Z,6.65
2022-12-05T17:02:20.198Z,6.00
2022-12-05T17:04:50.266Z,6.38
2022-12-05T17:07:18.855Z,6.47
2022-12-05T17:09:48.639Z,5.57
2022-12-05T17:12:20.525Z,5.03
2022-12-05T17:14:49.186Z,5.43
2022-12-05T17:17:19.007Z,5.60
2022-12-05T17:19:47.632Z,6.55
2022-12-05T17:22:17.892Z,6.55
2022-12-05T17:24:47.120Z,6.38
2022-12-05T17:27:15.824Z,5.78
2022-12-05T17:29:44.388Z,6.63
2022-12-05T17:32:13.019Z,5.68
2022-12-05T17:34:43.555Z,5.50
2022-12-05T17:37:12.159Z,6.25
2022-12-05T17:39:42.088Z,5.90
2022-12-05T17:42:10.649Z,5.05
2022-12-05T17:44:39.300Z,4.30
2022-12-05T17:47:08.462Z,4.50
2022-12-05T17:49:37.187Z,4.82
2022-12-05T17:52:22.310Z,4.70
2022-12-05T17:54:52.802Z,4.10
2022-12-05T17:57:21.388Z,4.70
2022-12-05T17:59:49.935Z,4.32
2022-12-05T18:02:20.054Z,3.45
2022-12-05T18:04:48.688Z,4.07
2022-12-05T18:07:17.494Z,4.25
2022-12-05T18:09:46.122Z,3.92
2022-12-05T18:12:16.022Z,4.38
2022-12-05T18:14:44.674Z,4.05
2022-12-05T18:17:13.325Z,4.35
2022-12-05T18:19:42.278Z,4.47
2022-12-05T18:22:11.068Z,4.05
2022-12-05T18:24:40.042Z,4.63
2022-12-05T18:27:08.618Z,4.13
2022-12-05T18:29:38.571Z,3.95
2022-12-05T18:32:07.550Z,4.03
2022-12-05T18:34:36.214Z,4.78
2022-12-05T18:37:04.865Z,4.45
2022-12-05T18:39:33.439Z,4.32
2022-12-05T18:42:02.760Z,4.57
2022-12-05T18:44:31.654Z,4.20
2022-12-05T18:47:01.801Z,4.28
2022-12-05T18:49:30.468Z,4.28
2022-12-05T18:51:59.333Z,4.15
2022-12-05T18:54:29.029Z,4.43
2022-12-05T18:56:57.579Z,3.92
2022-12-05T18:59:26.143Z,3.85
2022-12-05T19:01:54.939Z,4.70
2022-12-05T19:04:25.016Z,3.92
2022-12-05T19:06:54.823Z,4.07
2022-12-05T19:09:24.331Z,6.20
2022-12-05T19:11:54.934Z,4.50
2022-12-05T19:14:23.704Z,4.00
2022-12-05T19:16:58.407Z,5.63
2022-12-05T19:19:31.082Z,6.45
2022-12-05T19:22:00.115Z,5.07
2022-12-05T19:24:28.774Z,5.03
2022-12-05T19:26:57.533Z,4.80
2022-12-05T19:29:26.211Z,4.50
2022-12-05T19:31:54.922Z,4.22
2022-12-05T19:34:24.488Z,4.65
2022-12-05T19:36:55.129Z,4.65
2022-12-05T19:39:26.791Z,4.47
2022-12-05T19:41:57.613Z,4.10
2022-12-05T19:44:26.263Z,4.28
2022-12-05T19:46:55.171Z,4.78
2022-12-05T19:49:31.067Z,4.80
2022-12-05T19:52:00.999Z,4.55
2022-12-05T19:54:29.640Z,4.90
2022-12-05T19:57:00.594Z,3.70
2022-12-05T19:59:29.248Z,4.35
2022-12-05T20:01:58.001Z,4.00
2022-12-05T20:04:26.790Z,3.60
2022-12-05T20:06:55.383Z,3.60
2022-12-05T20:09:25.918Z,3.47
2022-12-05T20:11:55.833Z,3.80
2022-12-05T20:14:25.607Z,3.70
2022-12-05T20:16:54.870Z,3.97
2022-12-05T20:19:23.826Z,3.58
2022-12-05T20:21:52.466Z,3.72
2022-12-05T20:24:21.072Z,3.80
2022-12-05T20:26:52.924Z,3.85
2022-12-05T20:29:21.622Z,3.75
2022-12-05T20:31:56.755Z,3.65
2022-12-05T20:34:25.438Z,3.90
2022-12-05T20:36:54.010Z,3.75
2022-12-05T20:39:24.714Z,3.80
2022-12-05T20:41:54.713Z,3.60
2022-12-05T20:44:23.336Z,4.22
2022-12-05T20:46:52.323Z,4.20
2022-12-05T20:49:21.027Z,4.05
2022-12-05T20:51:49.622Z,3.65
2022-12-05T20:54:18.538Z,3.50
2022-12-05T20:56:47.457Z,3.70
2022-12-05T20:59:17.458Z,3.55
2022-12-05T21:01:47.504Z,3.80
2022-12-05T21:04:16.373Z,3.42
2022-12-05T21:06:46.074Z,3.45
2022-12-05T21:09:19.370Z,3.38
2022-12-05T21:11:47.945Z,3.00
2022-12-05T21:14:17.911Z,3.40
2022-12-05T21:16:46.484Z,3.22
2022-12-05T21:19:15.040Z,3.22
2022-12-05T21:21:43.607Z,3.03
2022-12-05T21:24:12.212Z,2.88
2022-12-05T21:26:41.345Z,3.15
2022-12-05T21:29:10.668Z,3.30
2022-12-05T21:31:41.331Z,3.05
2022-12-05T21:34:14.573Z,2.65
2022-12-05T21:36:43.435Z,3.10
2022-12-05T21:39:12.310Z,3.20
2022-12-05T21:41:41.130Z,3.13
2022-12-05T21:44:09.916Z,2.90
2022-12-05T21:46:38.562Z,2.88
2022-12-05T21:49:08.654Z,2.78
2022-12-05T21:51:37.195Z,2.92
2022-12-05T21:54:05.995Z,2.67
2022-12-05T21:56:34.571Z,3.05
2022-12-05T21:59:03.171Z,3.20
2022-12-05T22:01:31.966Z,3.20
2022-12-05T22:04:01.423Z,2.75
2022-12-05T22:06:33.758Z,3.40
2022-12-05T22:09:02.600Z,3.30
2022-12-05T22:11:31.522Z,3.55
2022-12-05T22:14:00.155Z,3.60
2022-12-05T22:16:32.899Z,3.33
2022-12-05T22:19:02.533Z,2.92
2022-12-05T22:21:34.192Z,3.15
2022-12-05T22:24:03.096Z,3.22
2022-12-05T22:26:31.706Z,2.97
2022-12-05T22:29:00.333Z,3.45
2022-12-05T22:31:29.037Z,3.20
2022-12-05T22:33:57.739Z,2.78
2022-12-05T22:36:26.322Z,2.92
2022-12-05T22:38:56.599Z,2.95
2022-12-05T22:41:26.197Z,3.30
2022-12-05T22:43:56.630Z,2.85
2022-12-05T22:46:25.991Z,3.17
2022-12-05T22:48:54.687Z,3.25
2022-12-05T22:51:23.866Z,3.60
2022-12-05T22:53:52.911Z,3.00
2022-12-05T22:56:23.763Z,3.55
2022-12-05T22:58:54.935Z,3.00
2022-12-05T23:01:24.136Z,3.35
2022-12-05T23:03:56.370Z,3.08
2022-12-05T23:06:25.130Z,2.83
2022-12-05T23:08:53.918Z,2.95
2022-12-05T23:11:24.112Z,2.70
2022-12-05T23:14:01.138Z,2.75
2022-12-05T23:16:32.109Z,2.70
2022-12-05T23:19:01.794Z,3.03
2022-12-05T23:21:31.355Z,2.50
2022-12-05T23:24:00.868Z,2.83
2022-12-05T23:26:31.978Z,2.90
2022-12-05T23:29:00.634Z,2.67
2022-12-05T23:31:29.313Z,2.50
2022-12-05T23:34:02.924Z,2.72
2022-12-05T23:36:32.154Z,2.60
2022-12-05T23:39:00.939Z,2.40
2022-12-05T23:41:31.034Z,2.10
2022-12-05T23:43:59.598Z,2.40
2022-12-05T23:46:28.850Z,2.88
2022-12-05T23:48:58.132Z,2.30
2022-12-05T23:51:27.910Z,3.00
2022-12-05T23:53:57.584Z,2.83
2022-12-05T23:56:27.409Z,2.40
2022-12-05T23:58:58.149Z,2.80
